createdAt,value
2018-06-12T00:00:01.392Z,21.82
2018-06-12T00:00:32.594Z,21.82
2018-06-12T00:01:03.817Z,21.82
2018-06-12T00:01:34.999Z,21.82
2018-06-12T00:02:06.172Z,21.82
2018-06-12T00:02:37.345Z,21.81
2018-06-12T00:03:08.513Z,21.81
2018-06-12T00:03:39.696Z,21.79
2018-06-12T00:04:10.870Z,21.77
2018-06-12T00:04:42.141Z,21.75
2018-06-12T00:05:13.339Z,17.91
2018-06-12T00:05:44.511Z,21.67
2018-06-12T00:06:15.685Z,21.61
2018-06-12T00:06:46.867Z,21.56
2018-06-12T00:07:18.040Z,21.55
2018-06-12T00:07:49.246Z,21.53
2018-06-12T00:08:20.421Z,21.52
2018-06-12T00:08:51.660Z,21.52
2018-06-12T00:09:22.909Z,21.52
2018-06-12T00:09:54.189Z,21.50
2018-06-12T00:10:25.399Z,21.50
2018-06-12T00:10:56.575Z,21.48
2018-06-12T00:11:27.741Z,21.44
2018-06-12T00:11:58.904Z,21.39
2018-06-12T00:12:30.141Z,21.34
2018-06-12T00:13:01.409Z,21.26
2018-06-12T00:13:32.576Z,21.23
2018-06-12T00:14:03.754Z,21.23
2018-06-12T00:14:35.261Z,21.23
2018-06-12T00:15:06.545Z,21.25
2018-06-12T00:15:37.744Z,21.27
2018-06-12T00:16:08.924Z,21.27
2018-06-12T00:16:40.100Z,21.29
2018-06-12T00:17:11.275Z,21.28
2018-06-12T00:17:42.501Z,21.25
2018-06-12T00:18:13.745Z,21.19
2018-06-12T00:18:44.912Z,21.12
2018-06-12T00:19:16.085Z,21.08
2018-06-12T00:19:47.267Z,21.05
2018-06-12T00:20:18.535Z,21.03
2018-06-12T00:20:49.796Z,21.04
2018-06-12T00:21:20.984Z,21.03
2018-06-12T00:21:52.157Z,21.05
2018-06-12T00:22:23.387Z,21.02
2018-06-12T00:22:54.567Z,21.01
2018-06-12T00:23:25.799Z,21.01
2018-06-12T00:23:57.023Z,21.00
2018-06-12T00:24:28.200Z,20.99
2018-06-12T00:24:59.424Z,20.96
2018-06-12T00:25:30.657Z,20.93
2018-06-12T00:26:01.846Z,20.91
2018-06-12T00:26:33.027Z,20.91
2018-06-12T00:27:04.298Z,20.90
2018-06-12T00:27:35.472Z,20.90
2018-06-12T00:28:06.701Z,20.89
2018-06-12T00:28:37.897Z,20.89
2018-06-12T00:29:09.076Z,20.87
2018-06-12T00:29:40.297Z,20.87
2018-06-12T00:30:11.515Z,20.84
2018-06-12T00:30:42.765Z,20.83
2018-06-12T00:31:13.945Z,20.81
2018-06-12T00:31:45.140Z,20.78
2018-06-12T00:32:16.308Z,20.74
2018-06-12T00:32:47.543Z,20.71
2018-06-12T00:33:18.729Z,20.72
2018-06-12T00:33:49.947Z,20.71
2018-06-12T00:34:21.185Z,20.72
2018-06-12T00:34:52.413Z,20.74
2018-06-12T00:35:23.613Z,20.74
2018-06-12T00:35:54.821Z,20.73
2018-06-12T00:36:25.988Z,20.71
2018-06-12T00:36:57.161Z,20.70
2018-06-12T00:37:28.347Z,20.70
2018-06-12T00:37:59.516Z,20.67
2018-06-12T00:38:30.769Z,20.66
2018-06-12T00:39:02.002Z,20.65
2018-06-12T00:39:33.200Z,20.64
2018-06-12T00:40:04.461Z,20.64
2018-06-12T00:40:35.639Z,20.61
2018-06-12T00:41:06.896Z,20.60
2018-06-12T00:41:38.129Z,20.59
2018-06-12T00:42:09.362Z,20.57
2018-06-12T00:42:40.577Z,20.53
2018-06-12T00:43:11.756Z,20.51
2018-06-12T00:43:42.999Z,20.51
2018-06-12T00:44:14.184Z,20.48
2018-06-12T00:44:45.412Z,20.44
2018-06-12T00:45:16.653Z,20.43
2018-06-12T00:45:47.868Z,20.42
2018-06-12T00:46:19.088Z,20.43
2018-06-12T00:46:50.285Z,20.41
2018-06-12T00:47:21.460Z,20.40
2018-06-12T00:47:52.634Z,20.37
2018-06-12T00:48:23.881Z,20.38
2018-06-12T00:48:55.132Z,20.38
2018-06-12T00:49:26.390Z,20.37
2018-06-12T00:49:57.628Z,20.34
2018-06-12T00:50:28.800Z,20.31
2018-06-12T00:51:00.002Z,20.29
2018-06-12T00:51:31.270Z,20.27
2018-06-12T00:52:02.543Z,20.24
2018-06-12T00:52:33.786Z,20.23
2018-06-12T00:53:04.965Z,20.23
2018-06-12T00:53:36.148Z,20.21
2018-06-12T00:54:07.330Z,20.24
2018-06-12T00:54:38.509Z,20.24
2018-06-12T00:55:13.319Z,20.26
2018-06-12T00:55:44.503Z,20.26
2018-06-12T00:56:15.708Z,20.26
2018-06-12T00:56:49.283Z,20.22
2018-06-12T00:57:20.580Z,20.20
2018-06-12T00:58:01.061Z,20.16
2018-06-12T00:58:32.968Z,20.10
2018-06-12T00:59:04.716Z,20.04
2018-06-12T00:59:35.987Z,19.03
2018-06-12T01:00:07.236Z,19.90
2018-06-12T01:00:38.428Z,19.87
2018-06-12T01:01:09.731Z,19.88
2018-06-12T01:01:40.917Z,19.85
2018-06-12T01:02:12.096Z,19.84
2018-06-12T01:02:43.266Z,19.83
2018-06-12T01:03:14.501Z,19.79
2018-06-12T01:03:45.687Z,19.78
2018-06-12T01:04:16.861Z,19.75
2018-06-12T01:04:48.043Z,19.75
2018-06-12T01:05:19.250Z,19.73
2018-06-12T01:05:51.264Z,19.70
2018-06-12T01:06:22.493Z,19.70
2018-06-12T01:06:53.700Z,19.72
2018-06-12T01:07:24.912Z,19.74
2018-06-12T01:07:56.150Z,19.75
2018-06-12T01:08:27.400Z,19.78
2018-06-12T01:08:58.569Z,19.79
2018-06-12T01:09:29.880Z,19.81
2018-06-12T01:10:01.115Z,19.81
2018-06-12T01:10:32.301Z,19.81
2018-06-12T01:11:03.476Z,19.80
2018-06-12T01:11:34.661Z,19.79
2018-06-12T01:12:05.862Z,19.80
2018-06-12T01:12:37.069Z,19.79
2018-06-12T01:13:08.250Z,19.68
2018-06-12T01:13:39.482Z,19.79
2018-06-12T01:14:10.720Z,19.79
2018-06-12T01:14:41.945Z,19.81
2018-06-12T01:15:13.131Z,19.81
2018-06-12T01:15:44.406Z,19.77
2018-06-12T01:16:15.588Z,19.78
2018-06-12T01:16:46.774Z,19.78
2018-06-12T01:17:17.986Z,19.79
2018-06-12T01:17:49.169Z,19.80
2018-06-12T01:18:20.450Z,19.79
2018-06-12T01:18:51.638Z,19.80
2018-06-12T01:19:22.844Z,19.81
2018-06-12T01:19:54.029Z,19.80
2018-06-12T01:20:25.279Z,19.83
2018-06-12T01:20:56.466Z,19.82
2018-06-12T01:21:27.650Z,19.84
2018-06-12T01:21:58.824Z,19.85
2018-06-12T01:22:29.996Z,19.85
2018-06-12T01:23:01.233Z,19.84
2018-06-12T01:23:32.465Z,19.84
2018-06-12T01:24:03.690Z,19.83
2018-06-12T01:24:34.879Z,19.80
2018-06-12T01:25:06.107Z,19.78
2018-06-12T01:25:37.338Z,19.74
2018-06-12T01:26:08.577Z,19.71
2018-06-12T01:26:39.761Z,19.70
2018-06-12T01:27:10.984Z,19.70
2018-06-12T01:27:42.168Z,19.72
2018-06-12T01:28:13.397Z,19.72
2018-06-12T01:28:44.710Z,19.74
2018-06-12T01:29:15.947Z,19.74
2018-06-12T01:29:47.191Z,19.73
2018-06-12T01:30:18.449Z,19.73
2018-06-12T01:30:49.633Z,19.71
2018-06-12T01:31:20.823Z,19.70
2018-06-12T01:31:52.053Z,19.70
2018-06-12T01:32:23.250Z,19.68
2018-06-12T01:32:54.430Z,19.67
2018-06-12T01:33:25.624Z,19.66
2018-06-12T01:33:56.848Z,19.63
2018-06-12T01:34:28.021Z,19.59
2018-06-12T01:34:59.269Z,19.53
2018-06-12T01:35:30.467Z,19.47
2018-06-12T01:36:01.717Z,19.45
2018-06-12T01:36:32.905Z,19.42
2018-06-12T01:37:04.089Z,19.37
2018-06-12T01:37:35.264Z,19.33
2018-06-12T01:38:06.442Z,19.30
2018-06-12T01:38:37.685Z,19.28
2018-06-12T01:39:08.858Z,19.28
2018-06-12T01:39:40.033Z,19.30
2018-06-12T01:40:11.285Z,19.32
2018-06-12T01:40:42.472Z,19.33
2018-06-12T01:41:13.685Z,19.33
2018-06-12T01:41:44.856Z,19.37
2018-06-12T01:42:16.033Z,19.39
2018-06-12T01:42:47.273Z,19.40
2018-06-12T01:43:18.519Z,19.40
2018-06-12T01:43:49.705Z,19.37
2018-06-12T01:44:20.872Z,19.34
2018-06-12T01:44:52.101Z,19.29
2018-06-12T01:45:23.285Z,19.25
2018-06-12T01:45:54.476Z,19.19
2018-06-12T01:46:25.743Z,19.17
2018-06-12T01:46:56.986Z,19.16
2018-06-12T01:47:28.177Z,19.16
2018-06-12T01:47:59.461Z,19.12
2018-06-12T01:48:30.691Z,19.10
2018-06-12T01:49:01.870Z,19.08
2018-06-12T01:49:33.098Z,19.09
2018-06-12T01:50:04.308Z,19.08
2018-06-12T01:50:35.481Z,19.05
2018-06-12T01:51:06.659Z,19.03
2018-06-12T01:51:37.881Z,19.00
2018-06-12T01:52:09.072Z,18.98
2018-06-12T01:52:40.276Z,18.98
2018-06-12T01:53:11.537Z,18.95
2018-06-12T01:53:42.738Z,18.95
2018-06-12T01:54:13.972Z,18.97
2018-06-12T01:54:45.156Z,19.00
2018-06-12T01:55:16.441Z,19.05
2018-06-12T01:55:47.673Z,19.09
2018-06-12T01:56:18.870Z,19.11
2018-06-12T01:56:50.044Z,19.12
2018-06-12T01:57:21.214Z,19.14
2018-06-12T01:57:52.444Z,19.14
2018-06-12T01:58:23.671Z,19.11
2018-06-12T01:58:54.913Z,19.09
2018-06-12T01:59:26.144Z,19.08
2018-06-12T01:59:57.312Z,19.07
2018-06-12T02:00:28.532Z,19.06
2018-06-12T02:00:59.704Z,19.06
2018-06-12T02:01:30.880Z,19.08
2018-06-12T02:02:02.108Z,19.08
2018-06-12T02:02:33.295Z,19.10
2018-06-12T02:03:04.484Z,19.10
2018-06-12T02:03:35.716Z,19.09
2018-06-12T02:04:06.953Z,19.09
2018-06-12T02:04:38.136Z,19.08
2018-06-12T02:05:09.373Z,19.06
2018-06-12T02:05:40.600Z,19.06
2018-06-12T02:06:11.877Z,19.06
2018-06-12T02:06:43.118Z,19.05
2018-06-12T02:07:14.293Z,19.05
2018-06-12T02:07:45.563Z,19.06
2018-06-12T02:08:16.763Z,19.10
2018-06-12T02:08:47.980Z,19.13
2018-06-12T02:09:19.229Z,19.16
2018-06-12T02:09:50.415Z,19.19
2018-06-12T02:10:21.668Z,19.21
2018-06-12T02:10:52.919Z,19.23
2018-06-12T02:11:24.095Z,19.21
2018-06-12T02:11:55.284Z,19.22
2018-06-12T02:12:26.465Z,19.23
2018-06-12T02:12:57.654Z,19.23
2018-06-12T02:13:29.645Z,19.25
2018-06-12T02:14:00.860Z,19.27
2018-06-12T02:14:32.037Z,19.28
2018-06-12T02:15:03.269Z,19.30
2018-06-12T02:15:34.534Z,19.31
2018-06-12T02:16:06.934Z,19.30
2018-06-12T02:16:38.156Z,19.28
2018-06-12T02:17:09.349Z,19.25
2018-06-12T02:17:40.590Z,19.24
2018-06-12T02:18:11.775Z,19.23
2018-06-12T02:18:42.948Z,19.21
2018-06-12T02:19:14.172Z,19.19
2018-06-12T02:19:46.008Z,19.17
2018-06-12T02:20:17.244Z,19.16
2018-06-12T02:20:48.419Z,19.13
2018-06-12T02:21:20.216Z,19.12
2018-06-12T02:21:51.447Z,19.13
2018-06-12T02:22:22.681Z,19.16
2018-06-12T02:22:53.867Z,19.17
2018-06-12T02:23:25.110Z,19.19
2018-06-12T02:23:56.342Z,19.22
2018-06-12T02:24:27.564Z,19.23
2018-06-12T02:24:58.748Z,19.23
2018-06-12T02:25:29.932Z,19.24
2018-06-12T02:26:01.216Z,19.25
2018-06-12T02:26:32.405Z,19.28
2018-06-12T02:27:03.592Z,19.30
2018-06-12T02:27:34.760Z,19.30
2018-06-12T02:28:05.942Z,19.29
2018-06-12T02:28:37.143Z,19.27
2018-06-12T02:29:08.366Z,19.27
2018-06-12T02:29:39.543Z,19.27
2018-06-12T02:30:10.780Z,19.27
2018-06-12T02:30:41.985Z,19.24
2018-06-12T02:31:13.212Z,19.21
2018-06-12T02:31:44.504Z,19.18
2018-06-12T02:32:15.734Z,19.14
2018-06-12T02:32:46.953Z,19.10
2018-06-12T02:33:18.133Z,19.08
2018-06-12T02:33:49.317Z,19.06
2018-06-12T02:34:20.590Z,19.04
2018-06-12T02:34:51.826Z,19.03
2018-06-12T02:35:23.024Z,19.02
2018-06-12T02:35:54.265Z,19.00
2018-06-12T02:36:25.470Z,19.02
2018-06-12T02:36:56.733Z,19.04
2018-06-12T02:37:27.960Z,19.03
2018-06-12T02:37:59.214Z,19.03
2018-06-12T02:38:30.400Z,19.02
2018-06-12T02:39:02.529Z,19.01
2018-06-12T02:39:34.382Z,19.01
2018-06-12T02:40:05.625Z,19.03
2018-06-12T02:40:36.846Z,19.05
2018-06-12T02:41:08.038Z,19.10
2018-06-12T02:41:39.256Z,19.13
2018-06-12T02:42:10.460Z,19.15
2018-06-12T02:42:41.706Z,19.16
2018-06-12T02:43:12.900Z,19.17
2018-06-12T02:43:44.085Z,19.17
2018-06-12T02:44:15.259Z,19.19
2018-06-12T02:44:46.441Z,19.19
2018-06-12T02:45:17.741Z,19.19
2018-06-12T02:45:49.016Z,19.17
2018-06-12T02:46:20.254Z,19.18
2018-06-12T02:46:51.554Z,19.14
2018-06-12T02:47:22.774Z,19.13
2018-06-12T02:47:53.992Z,19.13
2018-06-12T02:48:25.164Z,19.13
2018-06-12T02:48:56.379Z,19.15
2018-06-12T02:49:27.615Z,19.16
2018-06-12T02:49:58.876Z,19.17
2018-06-12T02:50:30.174Z,19.16
2018-06-12T02:51:01.354Z,19.17
2018-06-12T02:51:32.579Z,19.18
2018-06-12T02:52:03.807Z,19.17
2018-06-12T02:52:34.999Z,19.16
2018-06-12T02:53:06.240Z,19.20
2018-06-12T02:53:37.428Z,19.20
2018-06-12T02:54:09.663Z,19.22
2018-06-12T02:54:40.865Z,19.25
2018-06-12T02:55:12.597Z,19.26
2018-06-12T02:55:43.782Z,19.26
2018-06-12T02:56:15.007Z,19.10
2018-06-12T02:56:46.272Z,19.25
2018-06-12T02:57:17.445Z,19.23
2018-06-12T02:57:48.624Z,19.22
2018-06-12T02:58:20.748Z,19.22
2018-06-12T02:58:52.081Z,19.20
2018-06-12T02:59:23.265Z,19.19
2018-06-12T02:59:54.470Z,19.17
2018-06-12T03:00:25.644Z,19.18
2018-06-12T03:00:57.577Z,19.21
2018-06-12T03:01:28.761Z,19.24
2018-06-12T03:02:00.054Z,19.28
2018-06-12T03:02:32.040Z,19.30
2018-06-12T03:03:03.214Z,19.30
2018-06-12T03:03:34.430Z,19.30
2018-06-12T03:04:05.622Z,19.32
2018-06-12T03:04:36.807Z,19.36
2018-06-12T03:05:07.980Z,19.39
2018-06-12T03:05:39.187Z,19.40
2018-06-12T03:06:10.422Z,19.42
2018-06-12T03:06:41.641Z,19.45
2018-06-12T03:07:12.946Z,19.50
2018-06-12T03:07:44.154Z,19.54
2018-06-12T03:08:15.327Z,19.57
2018-06-12T03:08:46.505Z,19.59
2018-06-12T03:09:17.720Z,19.63
2018-06-12T03:09:48.897Z,19.67
2018-06-12T03:10:20.066Z,19.73
2018-06-12T03:10:51.253Z,19.72
2018-06-12T03:11:22.474Z,19.76
2018-06-12T03:11:53.677Z,19.82
2018-06-12T03:12:24.884Z,19.85
2018-06-12T03:12:56.060Z,19.93
2018-06-12T03:13:27.297Z,19.99
2018-06-12T03:13:58.500Z,20.03
2018-06-12T03:14:29.685Z,20.06
2018-06-12T03:15:01.441Z,20.07
2018-06-12T03:15:32.681Z,20.11
2018-06-12T03:16:03.862Z,20.08
2018-06-12T03:16:35.035Z,20.00
2018-06-12T03:17:06.222Z,19.99
2018-06-12T03:17:37.397Z,19.96
2018-06-12T03:18:08.596Z,19.97
2018-06-12T03:18:39.825Z,19.99
2018-06-12T03:19:11.017Z,19.99
2018-06-12T03:19:42.220Z,19.91
2018-06-12T03:20:13.457Z,19.91
2018-06-12T03:20:44.648Z,19.88
2018-06-12T03:21:15.824Z,19.91
2018-06-12T03:21:46.996Z,19.97
2018-06-12T03:22:18.224Z,20.00
2018-06-12T03:22:49.485Z,20.04
2018-06-12T03:23:20.711Z,20.10
2018-06-12T03:23:51.937Z,20.05
2018-06-12T03:24:23.243Z,20.04
2018-06-12T03:24:54.473Z,20.09
2018-06-12T03:25:25.729Z,20.17
2018-06-12T03:25:56.984Z,20.24
2018-06-12T03:26:28.170Z,20.35
2018-06-12T03:26:59.351Z,20.48
2018-06-12T03:27:30.547Z,20.60
2018-06-12T03:28:01.717Z,20.72
2018-06-12T03:28:32.908Z,20.84
2018-06-12T03:29:04.081Z,20.97
2018-06-12T03:29:35.301Z,21.11
2018-06-12T03:30:06.496Z,21.25
2018-06-12T03:30:37.698Z,21.36
2018-06-12T03:31:08.879Z,21.45
2018-06-12T03:31:40.117Z,21.53
2018-06-12T03:32:11.301Z,21.55
2018-06-12T03:32:42.504Z,21.63
2018-06-12T03:33:13.725Z,21.75
2018-06-12T03:33:44.957Z,21.81
2018-06-12T03:34:16.193Z,21.89
2018-06-12T03:34:47.408Z,21.95
2018-06-12T03:35:18.608Z,22.04
2018-06-12T03:35:49.845Z,22.14
2018-06-12T03:36:21.029Z,22.25
2018-06-12T03:36:52.208Z,22.33
2018-06-12T03:37:23.384Z,22.42
2018-06-12T03:37:54.604Z,22.43
2018-06-12T03:38:25.779Z,22.41
2018-06-12T03:38:56.945Z,22.36
2018-06-12T03:39:28.155Z,22.34
2018-06-12T03:39:59.381Z,22.38
2018-06-12T03:40:30.720Z,22.37
2018-06-12T03:41:01.900Z,22.29
2018-06-12T03:41:33.086Z,22.27
2018-06-12T03:42:04.260Z,22.32
2018-06-12T03:42:35.485Z,22.42
2018-06-12T03:43:06.740Z,22.46
2018-06-12T03:43:37.948Z,22.48
2018-06-12T03:44:09.118Z,22.43
2018-06-12T03:44:40.303Z,22.43
2018-06-12T03:45:11.520Z,22.44
2018-06-12T03:45:42.753Z,22.57
2018-06-12T03:46:13.973Z,22.62
2018-06-12T03:46:45.148Z,22.77
2018-06-12T03:47:16.321Z,22.76
2018-06-12T03:47:47.561Z,22.69
2018-06-12T03:48:18.740Z,22.63
2018-06-12T03:48:50.721Z,22.62
2018-06-12T03:49:21.889Z,22.59
2018-06-12T03:49:53.052Z,22.56
2018-06-12T03:50:24.240Z,22.62
2018-06-12T03:50:55.408Z,22.68
2018-06-12T03:51:26.593Z,22.70
2018-06-12T03:51:57.826Z,22.71
2018-06-12T03:52:29.003Z,22.68
2018-06-12T03:53:00.237Z,22.61
2018-06-12T03:53:31.418Z,22.53
2018-06-12T03:54:02.679Z,22.47
2018-06-12T03:54:33.914Z,22.41
2018-06-12T03:55:05.093Z,22.35
2018-06-12T03:55:36.260Z,22.24
2018-06-12T03:56:07.485Z,22.13
2018-06-12T03:56:38.652Z,21.96
2018-06-12T03:57:09.868Z,21.83
2018-06-12T03:57:41.044Z,21.83
2018-06-12T03:58:12.340Z,21.81
2018-06-12T03:58:43.520Z,21.92
2018-06-12T03:59:14.687Z,22.06
2018-06-12T03:59:45.919Z,22.17
2018-06-12T04:00:17.104Z,22.28
2018-06-12T04:00:48.277Z,22.44
2018-06-12T04:01:19.497Z,22.60
2018-06-12T04:01:50.729Z,22.65
2018-06-12T04:02:21.908Z,22.74
2018-06-12T04:02:53.079Z,22.88
2018-06-12T04:03:24.272Z,22.97
2018-06-12T04:03:55.510Z,23.04
2018-06-12T04:04:26.704Z,23.02
2018-06-12T04:04:57.881Z,22.91
2018-06-12T04:05:29.115Z,22.81
2018-06-12T04:06:00.375Z,22.84
2018-06-12T04:06:31.632Z,22.81
2018-06-12T04:07:02.802Z,22.81
2018-06-12T04:07:33.994Z,22.87
2018-06-12T04:08:05.161Z,22.91
2018-06-12T04:08:36.338Z,23.02
2018-06-12T04:09:07.500Z,23.08
2018-06-12T04:09:38.683Z,23.28
2018-06-12T04:10:09.849Z,23.43
2018-06-12T04:10:41.036Z,23.57
2018-06-12T04:11:12.225Z,23.72
2018-06-12T04:11:43.477Z,23.52
2018-06-12T04:12:14.750Z,23.61
2018-06-12T04:12:46.002Z,23.63
2018-06-12T04:13:17.201Z,23.61
2018-06-12T04:13:48.368Z,23.57
2018-06-12T04:14:19.580Z,23.47
2018-06-12T04:14:50.800Z,23.35
2018-06-12T04:15:21.956Z,23.26
2018-06-12T04:15:53.200Z,23.26
2018-06-12T04:16:24.367Z,23.16
2018-06-12T04:16:55.576Z,23.20
2018-06-12T04:17:26.907Z,23.21
2018-06-12T04:17:58.146Z,23.32
2018-06-12T04:18:29.396Z,23.28
2018-06-12T04:19:00.562Z,23.44
2018-06-12T04:19:31.741Z,23.48
2018-06-12T04:20:02.918Z,23.50
2018-06-12T04:20:34.171Z,23.49
2018-06-12T04:21:05.389Z,23.48
2018-06-12T04:21:36.619Z,23.39
2018-06-12T04:22:07.890Z,23.27
2018-06-12T04:22:39.072Z,23.27
2018-06-12T04:23:10.236Z,23.17
2018-06-12T04:23:41.408Z,23.14
2018-06-12T04:24:12.629Z,23.10
2018-06-12T04:24:43.809Z,23.11
2018-06-12T04:25:14.978Z,23.20
2018-06-12T04:25:46.201Z,23.22
2018-06-12T04:26:17.382Z,23.24
2018-06-12T04:26:48.561Z,23.23
2018-06-12T04:27:19.788Z,23.22
2018-06-12T04:27:50.963Z,23.20
2018-06-12T04:28:22.185Z,23.18
2018-06-12T04:28:53.417Z,23.12
2018-06-12T04:29:24.641Z,23.07
2018-06-12T04:29:55.816Z,23.00
2018-06-12T04:30:26.997Z,23.01
2018-06-12T04:30:58.174Z,22.95
2018-06-12T04:31:29.358Z,22.89
2018-06-12T04:32:00.524Z,22.84
2018-06-12T04:32:31.705Z,22.82
2018-06-12T04:33:02.912Z,22.88
2018-06-12T04:33:34.128Z,22.96
2018-06-12T04:34:05.352Z,23.00
2018-06-12T04:34:36.554Z,23.14
2018-06-12T04:35:07.769Z,23.24
2018-06-12T04:35:39.655Z,23.33
2018-06-12T04:36:10.889Z,23.38
2018-06-12T04:36:42.058Z,23.44
2018-06-12T04:37:13.264Z,23.49
2018-06-12T04:37:44.510Z,23.48
2018-06-12T04:38:15.733Z,23.51
2018-06-12T04:38:46.937Z,23.54
2018-06-12T04:39:18.096Z,23.59
2018-06-12T04:39:49.325Z,23.63
2018-06-12T04:40:20.507Z,23.71
2018-06-12T04:40:51.737Z,23.79
2018-06-12T04:41:23.006Z,23.90
2018-06-12T04:41:54.194Z,24.11
2018-06-12T04:42:25.413Z,24.31
2018-06-12T04:42:56.584Z,24.59
2018-06-12T04:43:27.826Z,24.86
2018-06-12T04:43:59.073Z,25.04
2018-06-12T04:44:30.305Z,25.33
2018-06-12T04:45:01.555Z,25.42
2018-06-12T04:45:32.769Z,25.52
2018-06-12T04:46:03.947Z,25.42
2018-06-12T04:46:35.113Z,25.44
2018-06-12T04:47:06.337Z,25.46
2018-06-12T04:47:37.581Z,25.35
2018-06-12T04:48:08.762Z,25.27
2018-06-12T04:48:39.956Z,25.09
2018-06-12T04:49:11.232Z,25.00
2018-06-12T04:49:42.460Z,24.82
2018-06-12T04:50:13.689Z,24.52
2018-06-12T04:50:44.859Z,24.43
2018-06-12T04:51:16.077Z,24.32
2018-06-12T04:51:47.253Z,24.19
2018-06-12T04:52:18.485Z,24.10
2018-06-12T04:52:49.687Z,24.04
2018-06-12T04:53:20.889Z,24.03
2018-06-12T04:53:52.075Z,24.01
2018-06-12T04:54:23.296Z,23.89
2018-06-12T04:54:54.485Z,23.89
2018-06-12T04:55:25.728Z,23.81
2018-06-12T04:55:56.909Z,23.94
2018-06-12T04:56:28.205Z,24.06
2018-06-12T04:56:59.433Z,24.07
2018-06-12T04:57:30.653Z,24.01
2018-06-12T04:58:01.886Z,23.97
2018-06-12T04:58:33.066Z,23.98
2018-06-12T04:59:04.284Z,23.97
2018-06-12T04:59:35.502Z,24.02
2018-06-12T05:00:06.722Z,24.06
2018-06-12T05:00:37.905Z,24.05
2018-06-12T05:01:09.132Z,24.16
2018-06-12T05:01:40.317Z,23.67
2018-06-12T05:02:11.488Z,24.40
2018-06-12T05:02:42.705Z,24.58
2018-06-12T05:03:13.920Z,24.72
2018-06-12T05:03:45.149Z,24.87
2018-06-12T05:04:16.337Z,25.04
2018-06-12T05:04:47.569Z,25.25
2018-06-12T05:05:18.751Z,25.43
2018-06-12T05:05:49.925Z,25.80
2018-06-12T05:06:21.146Z,26.14
2018-06-12T05:06:52.387Z,26.39
2018-06-12T05:07:23.622Z,26.73
2018-06-12T05:07:54.817Z,26.95
2018-06-12T05:08:26.029Z,27.16
2018-06-12T05:08:57.208Z,27.03
2018-06-12T05:09:29.294Z,26.79
2018-06-12T05:10:00.520Z,26.51
2018-06-12T05:10:31.800Z,26.73
2018-06-12T05:11:03.018Z,26.96
2018-06-12T05:11:34.204Z,26.97
2018-06-12T05:12:05.379Z,27.22
2018-06-12T05:12:36.556Z,27.50
2018-06-12T05:13:07.736Z,27.66
2018-06-12T05:13:38.912Z,27.81
2018-06-12T05:14:10.143Z,28.08
2018-06-12T05:14:41.324Z,28.28
2018-06-12T05:15:12.507Z,28.43
2018-06-12T05:15:43.743Z,28.55
2018-06-12T05:16:14.937Z,28.29
2018-06-12T05:16:46.830Z,28.11
2018-06-12T05:17:18.069Z,27.95
2018-06-12T05:17:49.257Z,27.82
2018-06-12T05:18:20.492Z,27.66
2018-06-12T05:18:51.739Z,27.39
2018-06-12T05:19:22.961Z,27.14
2018-06-12T05:19:54.178Z,26.84
2018-06-12T05:20:25.396Z,26.62
2018-06-12T05:20:56.631Z,26.38
2018-06-12T05:21:28.003Z,26.09
2018-06-12T05:21:59.277Z,26.00
2018-06-12T05:22:30.484Z,25.93
2018-06-12T05:23:01.664Z,25.85
2018-06-12T05:23:32.853Z,25.70
2018-06-12T05:24:04.032Z,25.60
2018-06-12T05:24:35.218Z,25.53
2018-06-12T05:25:06.453Z,25.46
2018-06-12T05:25:37.674Z,25.36
2018-06-12T05:26:08.901Z,25.20
2018-06-12T05:26:40.240Z,25.00
2018-06-12T05:27:11.502Z,24.95
2018-06-12T05:27:42.736Z,24.88
2018-06-12T05:28:13.930Z,24.76
2018-06-12T05:28:45.107Z,24.63
2018-06-12T05:29:16.299Z,24.49
2018-06-12T05:29:47.494Z,24.42
2018-06-12T05:30:18.672Z,24.42
2018-06-12T05:30:49.853Z,24.43
2018-06-12T05:31:21.021Z,24.42
2018-06-12T05:31:52.230Z,24.37
2018-06-12T05:32:23.525Z,24.34
2018-06-12T05:32:54.710Z,24.29
2018-06-12T05:33:25.931Z,24.25
2018-06-12T05:33:57.176Z,24.23
2018-06-12T05:34:28.372Z,24.20
2018-06-12T05:34:59.543Z,24.20
2018-06-12T05:35:30.720Z,24.19
2018-06-12T05:36:01.899Z,24.15
2018-06-12T05:36:33.141Z,24.06
2018-06-12T05:37:04.320Z,24.00
2018-06-12T05:37:35.575Z,24.00
2018-06-12T05:38:06.778Z,23.94
2018-06-12T05:38:37.943Z,23.96
2018-06-12T05:39:09.112Z,23.96
2018-06-12T05:39:40.281Z,24.01
2018-06-12T05:40:11.448Z,24.07
2018-06-12T05:40:42.674Z,24.09
2018-06-12T05:41:13.909Z,24.12
2018-06-12T05:41:45.098Z,24.12
2018-06-12T05:42:16.322Z,24.14
2018-06-12T05:42:47.545Z,24.20
2018-06-12T05:43:19.359Z,24.23
2018-06-12T05:43:50.579Z,24.28
2018-06-12T05:44:21.932Z,24.34
2018-06-12T05:44:53.171Z,24.40
2018-06-12T05:45:24.478Z,24.44
2018-06-12T05:45:55.748Z,24.47
2018-06-12T05:46:26.916Z,24.46
2018-06-12T05:46:58.097Z,24.47
2018-06-12T05:47:29.271Z,24.45
2018-06-12T05:48:00.499Z,24.45
2018-06-12T05:48:31.751Z,24.48
2018-06-12T05:49:02.924Z,24.62
2018-06-12T05:49:34.200Z,24.80
2018-06-12T05:50:05.464Z,24.94
2018-06-12T05:50:36.732Z,25.05
2018-06-12T05:51:07.917Z,25.15
2018-06-12T05:51:39.110Z,25.24
2018-06-12T05:52:10.375Z,25.32
2018-06-12T05:52:41.625Z,25.38
2018-06-12T05:53:12.860Z,25.34
2018-06-12T05:53:44.174Z,25.35
2018-06-12T05:54:15.421Z,25.31
2018-06-12T05:54:46.612Z,25.34
2018-06-12T05:55:17.797Z,25.33
2018-06-12T05:55:48.991Z,25.35
2018-06-12T05:56:20.180Z,25.39
2018-06-12T05:56:51.367Z,25.39
2018-06-12T05:57:22.538Z,25.35
2018-06-12T05:57:53.808Z,25.33
2018-06-12T05:58:25.021Z,25.33
2018-06-12T05:58:56.250Z,25.18
2018-06-12T05:59:27.485Z,25.24
2018-06-12T05:59:58.675Z,25.29
2018-06-12T06:00:29.844Z,25.36
2018-06-12T06:01:01.069Z,25.42
2018-06-12T06:01:32.255Z,25.54
2018-06-12T06:02:03.469Z,25.67
2018-06-12T06:02:34.645Z,25.75
2018-06-12T06:03:05.821Z,25.92
2018-06-12T06:03:37.067Z,26.03
2018-06-12T06:04:08.313Z,26.18
2018-06-12T06:04:39.500Z,26.35
2018-06-12T06:05:10.682Z,26.40
2018-06-12T06:05:41.974Z,26.51
2018-06-12T06:06:13.180Z,26.69
2018-06-12T06:06:44.352Z,26.77
2018-06-12T06:07:15.532Z,26.80
2018-06-12T06:07:46.702Z,26.94
2018-06-12T06:08:17.889Z,26.94
2018-06-12T06:08:49.080Z,27.01
2018-06-12T06:09:20.269Z,27.05
2018-06-12T06:09:51.599Z,27.05
2018-06-12T06:10:22.776Z,26.99
2018-06-12T06:10:53.992Z,26.90
2018-06-12T06:11:25.284Z,26.89
2018-06-12T06:11:56.453Z,26.87
2018-06-12T06:12:27.680Z,26.87
2018-06-12T06:12:58.921Z,26.89
2018-06-12T06:13:30.115Z,26.84
2018-06-12T06:14:01.361Z,26.77
2018-06-12T06:14:32.544Z,26.76
2018-06-12T06:15:03.724Z,26.72
2018-06-12T06:15:34.959Z,26.71
2018-06-12T06:16:06.138Z,26.72
2018-06-12T06:16:37.413Z,26.71
2018-06-12T06:17:08.668Z,26.71
2018-06-12T06:17:39.834Z,26.77
2018-06-12T06:18:11.020Z,26.83
2018-06-12T06:18:42.268Z,26.86
2018-06-12T06:19:13.505Z,26.92
2018-06-12T06:19:44.774Z,26.90
2018-06-12T06:20:15.959Z,26.94
2018-06-12T06:20:47.282Z,26.97
2018-06-12T06:21:18.510Z,27.00
2018-06-12T06:21:49.690Z,27.10
2018-06-12T06:22:21.003Z,27.08
2018-06-12T06:22:52.249Z,27.02
2018-06-12T06:23:23.438Z,27.06
2018-06-12T06:23:54.685Z,27.08
2018-06-12T06:24:25.878Z,27.15
2018-06-12T06:24:57.060Z,27.09
2018-06-12T06:25:28.244Z,27.04
2018-06-12T06:25:59.434Z,27.03
2018-06-12T06:26:30.674Z,27.08
2018-06-12T06:27:01.877Z,27.10
2018-06-12T06:27:33.108Z,27.17
2018-06-12T06:28:04.293Z,27.19
2018-06-12T06:28:35.464Z,27.30
2018-06-12T06:29:06.701Z,27.40
2018-06-12T06:29:37.904Z,27.49
2018-06-12T06:30:09.113Z,27.54
2018-06-12T06:30:40.371Z,27.58
2018-06-12T06:31:11.604Z,27.64
2018-06-12T06:31:42.826Z,27.69
2018-06-12T06:32:14.002Z,27.68
2018-06-12T06:32:45.217Z,27.60
2018-06-12T06:33:16.445Z,27.51
2018-06-12T06:33:47.635Z,27.48
2018-06-12T06:34:18.817Z,27.50
2018-06-12T06:34:50.040Z,27.53
2018-06-12T06:35:21.228Z,27.55
2018-06-12T06:35:52.489Z,27.61
2018-06-12T06:36:23.755Z,27.66
2018-06-12T06:36:54.913Z,27.73
2018-06-12T06:37:26.144Z,27.77
2018-06-12T06:37:57.333Z,27.76
2018-06-12T06:38:28.521Z,27.78
2018-06-12T06:38:59.736Z,27.82
2018-06-12T06:39:30.950Z,27.84
2018-06-12T06:40:02.135Z,27.94
2018-06-12T06:40:33.311Z,27.93
2018-06-12T06:41:04.561Z,27.91
2018-06-12T06:41:35.750Z,27.97
2018-06-12T06:42:06.931Z,28.02